Time;durP1;ratioP1;P1;durP2;ratioP2;P2;SDS_P1;SDS_P2;PMS_P1;PMS_P2;Temp;Humidity;BMP_temperature;BMP_pressure;BME280_temperature;BME280_humidity;BME280_pressure;Samples;Min_cycle;Max_cycle;Signal;HPM_P1;HPM_P2
2023/06/12 00:02:04;;;;;;;3.58;2.88;;;;;;;19.72;63.61;101739.00;6248742;23;20067;-79
2023/06/12 00:04:54;;;;;;;4.18;3.13;;;;;;;19.66;64.20;101734.94;6249450;23;20026;-78
2023/06/12 00:07:39;;;;;;;5.05;3.10;;;;;;;19.62;63.96;101732.59;6214314;23;20015;-79
2023/06/12 00:10:33;;;;;;;3.05;2.75;;;;;;;19.56;64.18;101731.19;6236693;23;20105;-79
2023/06/12 00:13:17;;;;;;;5.05;2.97;;;;;;;19.51;64.15;101728.81;6214980;23;20102;-79
2023/06/12 00:16:04;;;;;;;4.93;2.85;;;;;;;19.46;64.26;101724.72;6247652;23;20105;-79
2023/06/12 00:18:49;;;;;;;4.90;2.65;;;;;;;19.38;64.45;101728.81;6224535;23;20015;-79
2023/06/12 00:21:33;;;;;;;6.13;3.00;;;;;;;19.34;64.98;101727.28;6215870;23;20055;-80
2023/06/12 00:24:17;;;;;;;6.45;2.75;;;;;;;19.30;65.42;101722.25;6247401;23;20042;-80
2023/06/12 00:27:02;;;;;;;3.97;2.90;;;;;;;19.24;65.69;101735.13;6191974;23;20060;-76
2023/06/12 00:29:46;;;;;;;4.18;2.60;;;;;;;19.20;65.70;101724.69;6247165;23;20019;-79
2023/06/12 00:32:30;;;;;;;7.30;3.15;;;;;;;19.14;65.94;101734.03;6247718;23;20031;-77
2023/06/12 00:35:18;;;;;;;4.88;2.75;;;;;;;19.10;65.83;101730.72;6235887;23;20019;-78
2023/06/12 00:38:02;;;;;;;4.40;2.65;;;;;;;19.05;66.29;101721.22;6246533;23;20458;-78
2023/06/12 00:40:46;;;;;;;3.85;2.70;;;;;;;19.02;66.45;101730.38;6242373;23;20022;-79
2023/06/12 00:43:30;;;;;;;4.22;2.88;;;;;;;19.00;66.40;101724.19;6223606;23;20077;-79
2023/06/12 00:46:14;;;;;;;3.92;2.47;;;;;;;18.97;66.92;101729.78;6246336;23;20019;-78
2023/06/12 00:48:58;;;;;;;3.17;2.80;;;;;;;18.94;67.25;101725.47;6246392;23;20095;-77
2023/06/12 00:51:42;;;;;;;4.35;2.90;;;;;;;18.91;67.37;101722.97;6246306;23;20042;-78
2023/06/12 00:54:26;;;;;;;3.78;2.97;;;;;;;18.89;67.78;101724.09;6213274;23;20352;-78
2023/06/12 00:57:11;;;;;;;4.43;3.03;;;;;;;18.85;68.21;101726.09;6246025;23;20070;-79
2023/06/12 00:59:56;;;;;;;3.83;2.50;;;;;;;18.81;68.31;101720.09;6239120;22;20027;-78
2023/06/12 01:02:45;;;;;;;3.92;2.83;;;;;;;18.78;69.15;101712.22;6223352;23;20415;-80
2023/06/12 01:05:33;;;;;;;4.38;2.90;;;;;;;18.73;68.64;101714.34;6191768;23;20030;-77
2023/06/12 01:08:26;;;;;;;2.97;2.40;;;;;;;18.68;69.25;101724.56;6202955;23;20700;-78
2023/06/12 01:11:12;;;;;;;5.50;2.63;;;;;;;18.64;69.33;101720.34;6193306;23;20042;-78
2023/06/12 01:13:57;;;;;;;3.60;2.83;;;;;;;18.61;69.53;101712.50;6245854;23;20119;-78
2023/06/12 01:16:42;;;;;;;4.63;2.55;;;;;;;18.57;69.86;101715.38;6192409;23;20027;-79
2023/06/12 01:19:26;;;;;;;4.13;2.22;;;;;;;18.53;69.96;101715.69;6245766;23;20101;-79
2023/06/12 01:22:12;;;;;;;4.20;2.30;;;;;;;18.49;70.60;101711.47;6213414;23;20590;-79
2023/06/12 01:25:24;;;;;;;2.58;2.20;;;;;;;18.45;71.85;101714.38;6213638;23;20454;-78
2023/06/12 01:28:11;;;;;;;3.17;2.40;;;;;;;18.41;71.02;101725.41;6223655;23;20123;-78
2023/06/12 01:31:13;;;;;;;3.20;2.50;;;;;;;18.37;71.92;101726.53;6249151;23;20011;-78
2023/06/12 01:34:07;;;;;;;3.40;2.65;;;;;;;18.30;71.44;101720.72;6226382;23;20027;-78
2023/06/12 01:36:57;;;;;;;4.00;2.67;;;;;;;18.25;71.83;101722.84;6215085;23;20017;-78
2023/06/12 01:39:45;;;;;;;3.28;2.60;;;;;;;18.19;71.83;101727.63;6192915;23;20095;-79
2023/06/12 01:42:30;;;;;;;4.53;2.60;;;;;;;18.15;71.97;101722.56;6214741;23;20530;-79
2023/06/12 01:45:14;;;;;;;4.15;2.60;;;;;;;18.11;72.00;101729.94;6224836;23;20022;-79
2023/06/12 01:48:00;;;;;;;3.60;2.72;;;;;;;18.06;72.37;101721.34;6228983;22;20023;-78
2023/06/12 01:50:44;;;;;;;3.58;2.50;;;;;;;18.02;72.37;101726.00;6216437;23;20062;-79
2023/06/12 01:53:28;;;;;;;5.38;2.55;;;;;;;17.98;72.50;101723.59;6215457;23;20412;-78
2023/06/12 01:56:14;;;;;;;5.78;2.33;;;;;;;17.93;73.10;101729.25;6225939;23;20031;-79
2023/06/12 01:58:58;;;;;;;3.88;2.50;;;;;;;17.88;73.28;101729.53;6216419;23;20085;-79
2023/06/12 02:01:42;;;;;;;2.50;2.30;;;;;;;17.84;73.17;101732.50;6248405;22;20101;-78
2023/06/12 02:04:28;;;;;;;4.35;2.28;;;;;;;17.78;73.33;101718.53;6248514;23;20081;-79
2023/06/12 02:07:13;;;;;;;3.00;2.47;;;;;;;17.76;73.70;101733.00;6248383;23;20023;-79
2023/06/12 02:09:57;;;;;;;3.50;2.42;;;;;;;17.70;73.79;101728.84;6247819;23;20601;-78
2023/06/12 02:12:43;;;;;;;5.80;3.25;;;;;;;17.67;74.20;101729.06;6238859;23;20026;-78
2023/06/12 02:15:30;;;;;;;3.28;2.47;;;;;;;17.64;74.94;101731.91;6248555;23;20784;-78
2023/06/12 02:18:15;;;;;;;3.83;2.30;;;;;;;17.60;74.55;101733.06;6249224;23;20027;-78
2023/06/12 02:20:59;;;;;;;5.43;2.80;;;;;;;17.56;75.18;101735.06;6248714;23;20070;-79
2023/06/12 02:23:44;;;;;;;3.50;2.60;;;;;;;17.51;75.50;101735.38;6226375;23;20482;-78
2023/06/12 02:26:27;;;;;;;3.15;2.30;;;;;;;17.46;76.12;101737.44;6226414;23;20018;-79
2023/06/12 02:29:12;;;;;;;3.28;2.47;;;;;;;17.42;76.25;101738.59;6249363;23;20035;-80
2023/06/12 02:31:56;;;;;;;4.28;2.60;;;;;;;17.39;76.73;101738.78;6249405;23;20434;-78
2023/06/12 02:34:40;;;;;;;3.13;2.22;;;;;;;17.34;77.19;101738.19;6195728;23;20074;-79
2023/06/12 02:37:24;;;;;;;3.33;2.60;;;;;;;17.30;77.49;101736.63;6227413;23;20088;-78
2023/06/12 02:40:08;;;;;;;3.50;2.47;;;;;;;17.27;77.98;101748.38;6249241;23;20137;-78
2023/06/12 02:42:52;;;;;;;5.13;2.50;;;;;;;17.23;78.15;101744.19;6219901;23;20019;-79
2023/06/12 02:45:36;;;;;;;5.78;2.85;;;;;;;17.21;78.35;101754.97;6251964;23;20153;-78
2023/06/12 02:48:20;;;;;;;5.68;2.83;;;;;;;17.18;78.37;101749.81;6229151;23;20015;-79
2023/06/12 02:51:04;;;;;;;6.80;2.63;;;;;;;17.14;79.12;101752.75;6230412;23;20104;-79
2023/06/12 02:53:48;;;;;;;3.30;2.70;;;;;;;17.10;79.49;101749.38;6219105;23;20019;-78
2023/06/12 02:56:33;;;;;;;4.32;2.65;;;;;;;17.05;80.21;101751.50;6207479;23;20055;-77
2023/06/12 02:59:18;;;;;;;3.92;2.33;;;;;;;16.94;81.17;101749.41;6207074;23;20023;-78
2023/06/12 03:02:03;;;;;;;5.57;2.30;;;;;;;16.87;81.43;101750.69;6229193;23;20083;-78
2023/06/12 03:04:47;;;;;;;5.38;2.90;;;;;;;16.82;81.54;101748.28;6197348;23;20030;-79
2023/06/12 03:07:36;;;;;;;3.63;2.50;;;;;;;16.76;82.34;101756.66;6239317;23;20566;-78
2023/06/12 03:10:20;;;;;;;5.32;2.58;;;;;;;16.72;82.41;101755.13;6199408;23;20019;-79
2023/06/12 03:13:04;;;;;;;4.00;2.78;;;;;;;16.64;83.96;101753.75;6251633;23;20129;-79
2023/06/12 03:15:49;;;;;;;7.07;2.70;;;;;;;16.56;84.72;101754.19;6228435;23;20043;-79
2023/06/12 03:18:33;;;;;;;4.95;3.05;;;;;;;16.50;84.67;101751.00;6250654;23;20043;-79
2023/06/12 03:21:17;;;;;;;4.65;3.05;;;;;;;16.41;85.39;101761.25;6251068;23;20042;-79
2023/06/12 03:24:01;;;;;;;7.32;2.95;;;;;;;16.34;86.39;101759.03;6217239;23;20448;-78
2023/06/12 03:26:45;;;;;;;6.75;2.97;;;;;;;16.29;88.02;101761.94;6241365;23;20062;-79
2023/06/12 03:29:29;;;;;;;3.22;2.65;;;;;;;16.22;88.26;101755.19;6250710;23;20039;-79
2023/06/12 03:32:15;;;;;;;5.95;2.70;;;;;;;16.19;88.46;101755.38;6227971;23;20070;-77
2023/06/12 03:34:59;;;;;;;6.80;2.60;;;;;;;16.13;89.18;101757.44;6250800;23;20481;-77
2023/06/12 03:37:43;;;;;;;4.63;2.75;;;;;;;16.12;89.23;101761.03;6250275;23;20050;-79
2023/06/12 03:40:30;;;;;;;3.63;2.70;;;;;;;16.10;89.54;101754.06;6248978;23;20543;-79
2023/06/12 03:43:14;;;;;;;4.15;2.72;;;;;;;16.08;89.81;101748.78;6251116;23;20015;-79
2023/06/12 03:45:59;;;;;;;5.75;2.85;;;;;;;16.05;89.43;101756.13;6228651;23;20070;-79
2023/06/12 03:48:43;;;;;;;3.72;3.00;;;;;;;16.03;89.92;101756.22;6251063;23;20058;-79
2023/06/12 03:51:29;;;;;;;5.50;3.20;;;;;;;16.02;90.43;101750.00;6250158;23;20027;-78
2023/06/12 03:54:14;;;;;;;5.93;3.20;;;;;;;15.99;91.02;101752.84;6227581;23;20472;-78
2023/06/12 03:56:58;;;;;;;4.10;2.63;;;;;;;15.97;90.85;101757.38;6227182;23;20616;-78
2023/06/12 03:59:42;;;;;;;4.20;2.80;;;;;;;15.95;90.88;101756.63;6217842;22;20057;-77
2023/06/12 04:02:26;;;;;;;5.30;2.72;;;;;;;15.95;91.57;101761.13;6198964;23;20031;-78
2023/06/12 04:05:10;;;;;;;5.65;3.10;;;;;;;15.93;92.03;101755.84;6190879;23;20071;-78
2023/06/12 04:07:54;;;;;;;4.50;3.13;;;;;;;15.91;92.78;101752.34;6178839;23;20527;-78
2023/06/12 04:10:38;;;;;;;6.25;2.92;;;;;;;15.93;92.24;101760.31;6186467;23;20067;-78
2023/06/12 04:13:22;;;;;;;6.30;3.15;;;;;;;15.93;92.54;101754.97;6200255;23;20075;-78
2023/06/12 04:16:07;;;;;;;3.00;2.40;;;;;;;15.90;93.73;101755.97;6189628;23;20059;-79
2023/06/12 04:18:52;;;;;;;4.88;2.80;;;;;;;15.88;93.64;101766.75;6178455;23;20755;-79
2023/06/12 04:21:36;;;;;;;6.00;2.80;;;;;;;15.89;93.56;101765.81;6191028;23;20023;-79
2023/06/12 04:24:21;;;;;;;4.07;2.83;;;;;;;15.92;93.51;101761.25;6190291;23;20219;-79
2023/06/12 04:27:08;;;;;;;3.60;2.80;;;;;;;15.96;93.56;101776.19;6190617;23;20047;-79
2023/06/12 04:29:56;;;;;;;4.75;3.25;;;;;;;16.01;93.78;101768.78;6189929;23;20028;-78
2023/06/12 04:32:41;;;;;;;3.63;2.55;;;;;;;16.05;94.24;101773.00;6209767;23;20321;-79
2023/06/12 04:35:25;;;;;;;4.70;3.00;;;;;;;16.09;94.10;101771.91;6209230;23;20152;-79
2023/06/12 04:38:09;;;;;;;4.28;2.78;;;;;;;16.13;94.24;101769.94;6195112;23;20344;-78
2023/06/12 04:40:54;;;;;;;4.15;2.90;;;;;;;16.18;94.75;101775.03;6204902;23;20032;-78
2023/06/12 04:43:38;;;;;;;4.90;2.97;;;;;;;16.21;95.09;101774.84;6189897;23;20098;-78
2023/06/12 04:46:23;;;;;;;4.82;3.08;;;;;;;16.26;95.55;101772.78;6188539;23;20456;-78
2023/06/12 04:49:07;;;;;;;4.70;2.50;;;;;;;16.31;95.81;101777.88;6190032;23;20125;-78
2023/06/12 04:51:51;;;;;;;9.35;3.20;;;;;;;16.36;95.71;101775.81;6190091;23;20043;-78
2023/06/12 04:54:41;;;;;;;5.18;3.05;;;;;;;16.42;95.27;101776.34;6199941;23;20039;-79
2023/06/12 04:57:27;;;;;;;8.85;2.90;;;;;;;16.50;95.62;101775.06;6201187;23;20238;-77
2023/06/12 05:00:15;;;;;;;5.43;2.85;;;;;;;16.56;96.16;101775.56;6180401;23;20639;-79
2023/06/12 05:02:59;;;;;;;4.40;3.08;;;;;;;16.64;96.09;101772.47;6179618;23;20108;-78
2023/06/12 05:05:48;;;;;;;7.03;3.08;;;;;;;16.73;96.35;101767.53;6190805;23;20028;-79
2023/06/12 05:08:32;;;;;;;4.28;3.00;;;;;;;16.79;95.77;101765.38;6189030;23;20032;-77
2023/06/12 05:11:16;;;;;;;4.38;3.00;;;;;;;16.81;96.01;101771.50;6184731;23;20020;-79
2023/06/12 05:14:00;;;;;;;5.03;2.90;;;;;;;16.87;96.45;101767.63;6191040;23;20032;-78
2023/06/12 05:16:46;;;;;;;4.80;3.03;;;;;;;16.94;95.70;101766.31;6192362;23;20079;-78
2023/06/12 05:19:30;;;;;;;5.45;2.72;;;;;;;17.02;95.31;101767.69;6190391;23;20055;-78
2023/06/12 05:22:17;;;;;;;3.40;2.90;;;;;;;17.13;95.90;101775.97;6190187;23;20008;-78
2023/06/12 05:25:03;;;;;;;7.35;3.20;;;;;;;17.21;95.77;101776.38;6181199;23;20032;-78
2023/06/12 05:27:47;;;;;;;8.25;3.60;;;;;;;17.32;95.64;101777.56;6180866;23;20023;-79
2023/06/12 05:30:31;;;;;;;3.80;3.00;;;;;;;17.47;95.10;101773.97;6201658;23;20028;-79
2023/06/12 05:33:16;;;;;;;5.80;3.00;;;;;;;17.67;95.08;101777.25;6192010;23;20054;-78
2023/06/12 05:36:00;;;;;;;4.80;3.28;;;;;;;17.85;94.64;101764.56;6191781;23;20032;-79
2023/06/12 05:38:46;;;;;;;3.92;3.05;;;;;;;18.03;93.89;101775.94;6192356;23;20020;-79
2023/06/12 05:41:30;;;;;;;4.45;2.75;;;;;;;18.21;92.40;101775.78;6185122;23;20120;-78
2023/06/12 05:44:15;;;;;;;3.90;3.08;;;;;;;18.39;91.57;101773.75;6160060;23;20020;-79
2023/06/12 05:46:59;;;;;;;4.22;2.85;;;;;;;18.55;91.05;101778.09;6189823;23;20228;-79
2023/06/12 05:49:43;;;;;;;6.20;2.83;;;;;;;18.72;90.33;101766.28;6191168;23;20020;-78
2023/06/12 05:52:30;;;;;;;4.03;2.92;;;;;;;18.87;89.72;101769.78;6192619;23;20043;-78
2023/06/12 05:55:14;;;;;;;4.82;2.83;;;;;;;18.94;89.41;101768.41;6192339;23;20020;-79
2023/06/12 05:57:58;;;;;;;6.70;3.33;;;;;;;19.10;89.70;101767.41;6190852;23;20148;-78
2023/06/12 06:00:43;;;;;;;4.43;2.63;;;;;;;19.32;89.94;101769.50;6199146;23;20075;-78
2023/06/12 06:03:32;;;;;;;4.70;2.75;;;;;;;19.54;88.43;101768.00;6249551;23;20112;-77
2023/06/12 06:06:16;;;;;;;5.10;2.88;;;;;;;19.67;87.92;101770.72;6239956;23;20380;-77
2023/06/12 06:09:01;;;;;;;4.15;2.80;;;;;;;19.91;88.44;101776.19;6224965;23;20055;-78
2023/06/12 06:11:44;;;;;;;5.82;3.00;;;;;;;20.18;87.23;101774.38;6236411;23;20050;-78
2023/06/12 06:14:29;;;;;;;6.55;3.28;;;;;;;20.37;87.09;101779.25;6241400;23;20368;-78
2023/06/12 06:17:17;;;;;;;5.53;3.05;;;;;;;20.58;86.80;101765.22;6228436;23;20064;-78
2023/06/12 06:20:00;;;;;;;3.75;2.95;;;;;;;20.72;85.14;101773.16;6254940;23;20778;-79
2023/06/12 06:22:44;;;;;;;4.43;3.20;;;;;;;20.90;84.73;101772.75;6200224;23;20532;-78
2023/06/12 06:25:29;;;;;;;5.35;3.00;;;;;;;21.11;83.68;101767.59;6218636;23;20530;-77
2023/06/12 06:28:13;;;;;;;5.70;3.25;;;;;;;21.22;82.71;101776.66;6241273;23;20023;-77
2023/06/12 06:30:59;;;;;;;4.45;2.67;;;;;;;21.36;83.02;101781.84;6248649;23;20524;-78
2023/06/12 06:33:43;;;;;;;3.15;2.45;;;;;;;21.53;82.17;101788.63;6254436;23;20031;-78
2023/06/12 06:36:33;;;;;;;4.30;2.50;;;;;;;21.70;81.87;101781.13;6254261;23;20035;-78
2023/06/12 06:39:17;;;;;;;4.70;2.95;;;;;;;21.93;80.67;101784.69;6253103;23;20045;-78
2023/06/12 06:42:02;;;;;;;3.50;2.53;;;;;;;22.06;79.40;101784.56;6243492;23;20085;-77
2023/06/12 06:44:47;;;;;;;6.60;2.90;;;;;;;22.21;79.30;101781.59;6230399;23;20035;-77
2023/06/12 06:47:31;;;;;;;5.63;2.97;;;;;;;22.35;77.44;101781.34;6253167;23;20046;-78
2023/06/12 06:50:17;;;;;;;3.95;2.90;;;;;;;22.36;75.50;101779.53;6255094;23;20039;-78
2023/06/12 06:53:04;;;;;;;4.13;2.88;;;;;;;22.47;76.57;101779.50;6252900;23;20027;-77
2023/06/12 06:55:48;;;;;;;4.93;3.13;;;;;;;22.69;76.08;101788.56;6253795;23;20015;-75
2023/06/12 06:58:32;;;;;;;4.07;2.70;;;;;;;22.87;74.55;101788.88;6256726;23;20055;-78
2023/06/12 07:01:17;;;;;;;3.00;2.70;;;;;;;23.00;74.23;101785.16;6254079;22;20078;-78
2023/06/12 07:04:01;;;;;;;4.93;2.90;;;;;;;23.12;72.54;101784.13;6243944;23;20030;-78
2023/06/12 07:06:45;;;;;;;4.10;2.90;;;;;;;23.17;72.66;101778.31;6256707;23;20439;-78
2023/06/12 07:09:29;;;;;;;3.28;2.78;;;;;;;23.25;72.32;101783.09;6252467;23;20031;-77
2023/06/12 07:12:14;;;;;;;3.78;2.70;;;;;;;23.33;72.31;101783.31;6243159;23;20011;-78
2023/06/12 07:14:58;;;;;;;4.60;3.35;;;;;;;23.49;72.49;101780.16;6251405;23;20055;-78
2023/06/12 07:17:42;;;;;;;5.90;3.10;;;;;;;23.64;71.73;101786.06;6198832;23;20022;-79
2023/06/12 07:20:26;;;;;;;4.20;2.88;;;;;;;23.77;70.82;101775.03;6254704;23;20218;-78
2023/06/12 07:23:10;;;;;;;6.18;3.05;;;;;;;23.90;69.70;101784.78;6255396;23;20016;-79
2023/06/12 07:25:54;;;;;;;5.40;2.80;;;;;;;23.96;69.12;101785.09;6253613;23;20031;-77
2023/06/12 07:28:38;;;;;;;3.72;2.70;;;;;;;24.17;69.81;101786.91;6231477;23;20446;-78
2023/06/12 07:31:22;;;;;;;4.32;2.50;;;;;;;24.34;68.99;101779.16;6253652;23;20083;-78
2023/06/12 07:34:06;;;;;;;3.60;2.72;;;;;;;24.39;68.88;101782.28;6253094;23;20438;-79
2023/06/12 07:36:50;;;;;;;4.47;3.05;;;;;;;24.50;68.10;101779.47;6256277;23;20031;-77
2023/06/12 07:39:34;;;;;;;3.75;2.67;;;;;;;24.61;67.79;101789.31;6252888;23;20515;-79
2023/06/12 07:42:19;;;;;;;4.43;2.92;;;;;;;24.65;67.52;101789.88;6219499;23;20046;-82
2023/06/12 07:45:12;;;;;;;8.10;3.00;;;;;;;24.65;66.70;101789.88;6194525;23;20059;-81
2023/06/12 07:48:00;;;;;;;5.15;3.03;;;;;;;24.69;67.23;101785.91;6213614;23;20113;-80
2023/06/12 07:50:47;;;;;;;4.25;2.70;;;;;;;24.70;66.70;101784.91;6240885;23;20018;-82
2023/06/12 07:53:31;;;;;;;4.22;2.88;;;;;;;24.57;67.23;101787.03;6218237;23;20093;-80
2023/06/12 07:56:17;;;;;;;4.85;2.75;;;;;;;24.63;67.16;101787.31;6208063;23;20041;-80
2023/06/12 07:59:14;;;;;;;3.92;2.90;;;;;;;24.58;66.16;101778.78;6229673;23;20030;-79
2023/06/12 08:02:01;;;;;;;3.10;2.80;;;;;;;24.60;67.26;101773.19;6229137;23;20043;-80
2023/06/12 08:04:48;;;;;;;6.28;2.90;;;;;;;24.72;66.27;101769.38;6255060;23;20348;-79
2023/06/12 08:07:33;;;;;;;4.57;2.85;;;;;;;24.89;65.91;101767.00;6254974;23;20085;-80
2023/06/12 08:10:37;;;;;;;4.50;2.83;;;;;;;25.04;63.98;101764.69;6230591;23;20074;-80
2023/06/12 08:13:23;;;;;;;4.32;3.03;;;;;;;25.15;64.98;101769.13;6221245;23;20077;-80
2023/06/12 08:16:08;;;;;;;6.60;2.78;;;;;;;25.23;65.24;101769.28;6215764;23;20066;-80
2023/06/12 08:18:52;;;;;;;4.82;3.10;;;;;;;25.35;64.36;101770.84;6233661;23;20069;-79
2023/06/12 08:21:42;;;;;;;5.13;2.58;;;;;;;25.49;64.12;101771.38;6222917;23;20033;-80
2023/06/12 08:24:36;;;;;;;3.50;2.70;;;;;;;25.61;63.44;101763.94;6232633;23;20018;-80
2023/06/12 08:27:24;;;;;;;4.15;2.90;;;;;;;25.65;62.72;101759.09;6254330;23;20030;-80
2023/06/12 08:30:08;;;;;;;7.60;3.10;;;;;;;25.69;62.99;101760.47;6217065;23;20018;-73
2023/06/12 08:32:52;;;;;;;5.10;2.70;;;;;;;25.89;63.28;101755.84;6231720;23;20433;-72
2023/06/12 08:35:36;;;;;;;5.70;3.25;;;;;;;26.02;63.37;101760.94;6242082;23;20015;-73
2023/06/12 08:38:20;;;;;;;3.67;2.80;;;;;;;26.07;62.58;101764.03;6241705;23;20030;-75
2023/06/12 08:41:05;;;;;;;2.88;2.50;;;;;;;26.16;61.24;101759.59;6237526;23;20122;-73
2023/06/12 08:43:51;;;;;;;3.42;2.78;;;;;;;26.17;59.96;101759.44;6240520;23;20035;-73
2023/06/12 08:46:35;;;;;;;2.92;2.42;;;;;;;26.12;59.29;101761.75;6187472;23;20015;-72
2023/06/12 08:49:19;;;;;;;3.55;2.60;;;;;;;26.22;59.94;101756.31;6242765;23;20030;-73
2023/06/12 08:52:04;;;;;;;3.00;2.70;;;;;;;26.29;59.64;101761.97;6230516;23;20146;-72
2023/06/12 08:54:50;;;;;;;4.45;2.90;;;;;;;26.42;58.04;101753.47;6232191;23;20023;-72
2023/06/12 08:57:37;;;;;;;3.13;2.22;;;;;;;26.54;56.49;101748.66;6219805;23;20093;-72
2023/06/12 09:00:21;;;;;;;3.65;2.45;;;;;;;26.66;56.47;101746.56;6196710;23;20046;-78
2023/06/12 09:03:06;;;;;;;2.78;2.25;;;;;;;26.71;54.55;101753.22;6251412;23;20141;-74
2023/06/12 09:05:52;;;;;;;3.25;2.55;;;;;;;26.77;54.82;101750.91;6249978;23;20045;-76
2023/06/12 09:08:38;;;;;;;2.63;2.33;;;;;;;26.76;54.77;101747.38;6242424;23;20662;-79
2023/06/12 09:11:22;;;;;;;2.67;2.45;;;;;;;26.88;53.78;101752.53;6219114;23;20082;-80
2023/06/12 09:14:08;;;;;;;2.40;2.20;;;;;;;26.92;52.99;101752.13;6230792;23;20074;-78
2023/06/12 09:16:53;;;;;;;3.08;2.63;;;;;;;26.98;51.05;101747.91;6252383;23;20027;-78
2023/06/12 09:19:48;;;;;;;3.25;2.35;;;;;;;26.95;47.81;101743.66;6233905;23;20015;-76
2023/06/12 09:22:32;;;;;;;4.05;2.40;;;;;;;27.05;51.67;101753.56;6253215;23;20162;-78
2023/06/12 09:25:16;;;;;;;3.97;2.90;;;;;;;27.11;50.00;101756.53;6250533;23;20043;-78
2023/06/12 09:28:03;;;;;;;3.83;2.65;;;;;;;27.13;50.57;101753.66;6252284;23;20098;-79
2023/06/12 09:30:50;;;;;;;6.05;2.83;;;;;;;27.10;50.36;101752.09;6230425;23;20043;-77
2023/06/12 09:33:39;;;;;;;3.13;2.70;;;;;;;27.03;49.37;101755.59;6250992;23;20042;-76
2023/06/12 09:36:31;;;;;;;5.03;2.88;;;;;;;27.07;50.25;101757.00;6192436;23;20022;-78
2023/06/12 09:39:15;;;;;;;;;;;;;;;27.11;46.22;101752.94;6215078;23;20124;-78
2023/06/12 09:42:01;;;;;;;2.33;2.13;;;;;;;27.16;48.69;101758.75;6213646;23;20016;-76
2023/06/12 09:44:45;;;;;;;3.92;2.75;;;;;;;27.18;47.36;101751.28;6239185;23;20043;-76
2023/06/12 09:47:29;;;;;;;3.33;2.50;;;;;;;27.12;48.15;101754.63;6215194;23;20011;-76
2023/06/12 09:50:17;;;;;;;3.38;2.50;;;;;;;27.17;47.76;101749.59;6196655;23;20081;-76
2023/06/12 09:53:01;;;;;;;5.00;3.15;;;;;;;27.22;47.22;101757.25;6248924;23;20046;-76
2023/06/12 09:55:45;;;;;;;3.42;2.60;;;;;;;27.22;46.75;101751.81;6218477;23;20078;-77
2023/06/12 09:58:30;;;;;;;2.47;2.05;;;;;;;27.22;45.18;101760.84;6220132;23;20086;-78
2023/06/12 10:01:17;;;;;;;3.40;2.38;;;;;;;27.11;44.42;101753.81;6249121;22;20073;-73
2023/06/12 10:04:02;;;;;;;3.85;2.50;;;;;;;27.05;43.75;101753.56;6224741;23;20081;-78
2023/06/12 10:07:00;;;;;;;3.25;2.35;;;;;;;27.16;43.36;101745.16;6221720;23;20035;-75
2023/06/12 10:09:44;;;;;;;3.20;2.63;;;;;;;27.25;43.86;101746.09;6216728;23;20045;-77
2023/06/12 10:12:29;;;;;;;2.72;2.15;;;;;;;27.20;41.76;101748.41;6215467;23;20531;-78
2023/06/12 10:15:16;;;;;;;2.72;2.30;;;;;;;27.18;41.29;101756.72;6204946;23;20041;-76
2023/06/12 10:18:01;;;;;;;2.47;2.10;;;;;;;27.20;39.70;101749.28;6214889;23;20490;-75
2023/06/12 10:20:46;;;;;;;2.45;2.25;;;;;;;27.23;40.63;101748.97;6249524;23;20011;-77
2023/06/12 10:23:30;;;;;;;4.57;3.15;;;;;;;27.26;40.47;101753.22;6228406;23;20047;-76
2023/06/12 10:26:22;;;;;;;2.20;2.00;;;;;;;27.26;39.81;101747.78;6205506;23;20043;-77
2023/06/12 10:29:26;;;;;;;3.00;2.13;;;;;;;27.16;37.08;101747.88;6208590;23;20147;-77
2023/06/12 10:32:14;;;;;;;4.28;2.08;;;;;;;27.20;37.44;101743.00;6207059;23;20019;-78
2023/06/12 10:34:59;;;;;;;3.05;2.00;;;;;;;27.24;39.25;101737.06;6235493;23;20027;-79
2023/06/12 10:37:47;;;;;;;2.60;2.03;;;;;;;27.29;39.46;101738.47;6234417;23;20106;-80
2023/06/12 10:40:31;;;;;;;4.43;2.20;;;;;;;27.30;38.85;101732.03;6231513;23;20111;-80
2023/06/12 10:43:23;;;;;;;2.35;2.10;;;;;;;27.29;38.52;101733.03;6264770;23;20031;-81
2023/06/12 10:46:12;;;;;;;3.27;2.40;;;;;;;27.24;38.56;101728.91;6234435;23;20047;-79
2023/06/12 10:49:04;;;;;;;2.92;2.33;;;;;;;27.27;38.22;101733.19;6204262;23;20074;-79
2023/06/12 10:51:48;;;;;;;3.57;2.00;;;;;;;27.44;39.52;101730.59;6240620;23;20027;-79
2023/06/12 10:54:35;;;;;;;4.97;2.40;;;;;;;27.49;38.88;101722.78;6215029;23;20270;-82
2023/06/12 10:57:30;;;;;;;2.90;2.17;;;;;;;27.44;37.44;101725.16;6259275;23;20085;-78
2023/06/12 11:00:16;;;;;;;3.53;2.33;;;;;;;27.55;39.26;101713.16;6243623;23;20065;-77
2023/06/12 11:03:11;;;;;;;2.25;1.90;;;;;;;27.63;37.41;101716.78;6228729;23;20031;-78
2023/06/12 11:06:00;;;;;;;2.50;2.20;;;;;;;27.67;37.98;101714.59;6210608;23;20475;-81
2023/06/12 11:08:46;;;;;;;2.83;2.33;;;;;;;27.64;37.15;101713.06;6254965;23;20053;-79
2023/06/12 11:11:32;;;;;;;3.45;2.42;;;;;;;27.59;36.73;101714.53;6243342;23;20071;-83
2023/06/12 11:14:17;;;;;;;2.17;1.98;;;;;;;27.52;37.14;101715.16;6233645;23;20034;-78
2023/06/12 11:17:01;;;;;;;5.68;2.30;;;;;;;27.64;37.34;101709.47;6256943;23;20026;-81
2023/06/12 11:19:45;;;;;;;2.60;2.13;;;;;;;27.72;36.38;101714.94;6232549;23;20086;-80
2023/06/12 11:22:29;;;;;;;3.55;2.20;;;;;;;27.75;36.60;101711.94;6228878;23;20042;-78
2023/06/12 11:25:17;;;;;;;3.33;2.30;;;;;;;27.75;36.45;101708.34;6208605;23;20039;-79
2023/06/12 11:28:02;;;;;;;3.05;2.15;;;;;;;27.87;37.06;101708.88;6225027;23;20038;-79
2023/06/12 11:30:53;;;;;;;2.45;2.25;;;;;;;27.91;36.56;101707.56;6202157;23;20078;-80
2023/06/12 11:33:37;;;;;;;2.63;2.37;;;;;;;27.96;36.31;101705.22;6237005;23;20011;-80
2023/06/12 11:36:21;;;;;;;2.45;1.95;;;;;;;27.94;36.94;101701.78;6196504;23;20653;-79
2023/06/12 11:39:18;;;;;;;2.60;2.00;;;;;;;28.01;34.33;101700.13;6260079;23;20809;-80
2023/06/12 11:42:02;;;;;;;2.63;2.00;;;;;;;27.87;35.84;101689.84;6197710;23;20399;-79
2023/06/12 11:44:50;;;;;;;3.53;2.30;;;;;;;27.88;36.13;101691.59;6200765;23;20043;-81
2023/06/12 11:47:38;;;;;;;2.20;2.00;;;;;;;27.98;35.78;101688.69;6255303;23;20074;-79
2023/06/12 11:50:22;;;;;;;4.97;2.78;;;;;;;28.09;35.80;101685.69;6260082;23;20019;-81
2023/06/12 11:53:09;;;;;;;2.35;2.05;;;;;;;28.14;35.40;101691.47;6215249;23;20026;-83
2023/06/12 11:56:00;;;;;;;3.95;2.55;;;;;;;28.19;34.24;101680.09;6239488;23;20010;-80
2023/06/12 11:58:46;;;;;;;2.95;2.33;;;;;;;28.18;35.37;101684.69;6243223;23;20035;-80
2023/06/12 12:01:54;;;;;;;3.17;2.60;;;;;;;28.16;34.64;101681.28;6187022;23;20053;-80
2023/06/12 12:04:39;;;;;;;3.55;2.40;;;;;;;28.11;35.25;101686.34;6236592;23;20076;-82
2023/06/12 12:07:24;;;;;;;2.67;2.10;;;;;;;28.05;35.26;101673.44;6219611;23;20089;-80
2023/06/12 12:10:12;;;;;;;3.47;2.50;;;;;;;28.03;34.92;101668.16;6229061;23;20052;-79
2023/06/12 12:13:02;;;;;;;2.83;2.53;;;;;;;28.12;34.42;101669.03;6255028;23;20119;-80
2023/06/12 12:15:46;;;;;;;3.55;2.50;;;;;;;28.23;34.77;101672.47;6254377;23;20026;-80
2023/06/12 12:18:33;;;;;;;3.13;2.35;;;;;;;28.30;34.97;101668.06;6253617;23;20066;-79
2023/06/12 12:21:17;;;;;;;3.53;2.53;;;;;;;28.41;35.17;101664.16;6205143;23;20027;-80
2023/06/12 12:24:03;;;;;;;3.72;2.83;;;;;;;28.55;35.48;101660.75;6246546;23;20031;-81
2023/06/12 12:26:52;;;;;;;2.63;2.38;;;;;;;28.63;34.52;101657.19;6247700;23;20027;-79
2023/06/12 12:29:36;;;;;;;5.82;2.80;;;;;;;28.82;35.25;101655.97;6228728;22;20027;-80
2023/06/12 12:32:20;;;;;;;5.70;3.40;;;;;;;28.96;35.44;101650.91;6184788;23;20048;-80
2023/06/12 12:35:05;;;;;;;5.07;2.78;;;;;;;28.96;35.32;101657.22;6176142;23;20020;-79
2023/06/12 12:37:53;;;;;;;3.45;2.70;;;;;;;28.96;35.21;101657.22;6172864;23;20095;-82
2023/06/12 12:40:38;;;;;;;3.33;2.60;;;;;;;28.96;34.87;101646.31;6163141;23;20439;-80
2023/06/12 12:43:21;;;;;;;2.88;2.60;;;;;;;28.93;35.09;101651.25;6173805;23;20031;-76
2023/06/12 12:46:05;;;;;;;3.25;2.95;;;;;;;28.94;35.16;101640.19;6185432;23;20012;-76
2023/06/12 12:48:53;;;;;;;2.70;2.47;;;;;;;28.95;35.69;101641.88;6182144;23;20218;-79
2023/06/12 12:51:37;;;;;;;3.28;2.80;;;;;;;29.07;36.22;101645.09;6185304;23;20463;-78